createdAt,value
2017-06-16T00:01:19.663Z,84.90
2017-06-16T00:03:47.141Z,84.80
2017-06-16T00:06:15.424Z,86.50
2017-06-16T00:08:43.684Z,85.80
2017-06-16T00:11:11.952Z,85.60
2017-06-16T00:13:39.432Z,85.50
2017-06-16T00:16:07.665Z,85.90
2017-06-16T00:18:35.166Z,85.90
2017-06-16T00:21:03.409Z,86.20
2017-06-16T00:23:30.908Z,86.10
2017-06-16T00:25:58.391Z,87.40
2017-06-16T00:28:25.878Z,86.50
2017-06-16T00:30:53.370Z,86.80
2017-06-16T00:33:21.608Z,87.30
2017-06-16T00:35:49.143Z,87.20
2017-06-16T00:38:16.633Z,87.20
2017-06-16T00:40:44.141Z,87.10
2017-06-16T00:43:11.620Z,86.70
2017-06-16T00:45:39.102Z,86.90
2017-06-16T00:48:06.588Z,86.50
2017-06-16T00:50:34.064Z,86.60
2017-06-16T00:53:02.320Z,87.00
2017-06-16T00:55:29.801Z,87.00
2017-06-16T00:57:57.298Z,86.70
2017-06-16T01:00:24.765Z,86.30
2017-06-16T01:02:52.261Z,85.50
2017-06-16T01:05:20.500Z,84.80
2017-06-16T01:07:48.005Z,84.80
2017-06-16T01:10:16.252Z,82.80
2017-06-16T01:12:43.729Z,82.70
2017-06-16T01:15:11.993Z,82.60
2017-06-16T01:17:39.464Z,82.50
2017-06-16T01:20:07.726Z,82.20
2017-06-16T01:22:35.217Z,82.20
2017-06-16T01:25:02.720Z,81.60
2017-06-16T01:27:30.196Z,81.60
2017-06-16T01:29:57.668Z,80.90
2017-06-16T01:32:25.938Z,80.90
2017-06-16T01:34:53.418Z,80.80
2017-06-16T01:37:21.676Z,80.40
2017-06-16T01:39:49.932Z,79.60
2017-06-16T01:42:17.403Z,79.60
2017-06-16T01:44:44.909Z,79.80
2017-06-16T01:47:12.409Z,80.10
2017-06-16T01:49:39.900Z,79.80
2017-06-16T01:52:07.388Z,79.40
2017-06-16T01:54:34.896Z,79.20
2017-06-16T01:57:02.368Z,79.30
2017-06-16T01:59:30.642Z,79.70
2017-06-16T02:01:58.879Z,79.70
2017-06-16T02:04:26.375Z,79.60
2017-06-16T02:06:54.617Z,80.20
2017-06-16T02:09:22.089Z,80.10
2017-06-16T02:11:49.580Z,80.10
2017-06-16T02:14:17.887Z,79.20
2017-06-16T02:16:45.385Z,79.10
2017-06-16T02:19:12.864Z,79.70
2017-06-16T02:21:41.148Z,76.80
2017-06-16T02:24:08.629Z,76.80
2017-06-16T02:26:36.112Z,76.80
2017-06-16T02:29:03.612Z,75.50
2017-06-16T02:31:31.863Z,74.50
2017-06-16T02:33:59.362Z,74.50
2017-06-16T02:36:26.834Z,74.50
2017-06-16T02:38:54.324Z,74.50
2017-06-16T02:41:21.800Z,74.50
2017-06-16T02:43:49.300Z,74.60
2017-06-16T02:46:16.800Z,74.80
2017-06-16T02:48:44.282Z,75.60
2017-06-16T02:51:11.790Z,75.60
2017-06-16T02:53:39.281Z,75.20
2017-06-16T02:56:06.764Z,73.40
2017-06-16T02:58:34.253Z,73.30
2017-06-16T03:01:01.729Z,73.30
2017-06-16T03:03:29.199Z,73.00
2017-06-16T03:05:57.164Z,72.30
2017-06-16T03:08:24.653Z,72.30
2017-06-16T03:10:52.140Z,72.10
2017-06-16T03:13:20.377Z,72.10
2017-06-16T03:15:47.904Z,72.10
2017-06-16T03:18:15.378Z,72.40
2017-06-16T03:20:42.922Z,72.40
2017-06-16T03:23:10.397Z,72.10
2017-06-16T03:25:37.941Z,72.20
2017-06-16T03:28:05.440Z,72.20
2017-06-16T03:30:32.961Z,72.00
2017-06-16T03:33:00.431Z,72.20
2017-06-16T03:35:27.974Z,72.70
2017-06-16T03:37:55.456Z,72.30
2017-06-16T03:40:22.955Z,72.60
2017-06-16T03:42:51.209Z,71.70
2017-06-16T03:45:18.684Z,71.50
2017-06-16T03:47:46.948Z,71.60
2017-06-16T03:50:15.203Z,68.90
2017-06-16T03:52:42.709Z,68.70
2017-06-16T03:55:10.196Z,67.40
2017-06-16T03:57:37.709Z,66.70
2017-06-16T04:00:05.956Z,64.50
2017-06-16T04:02:33.453Z,64.30
2017-06-16T04:05:01.722Z,61.80
2017-06-16T04:07:29.192Z,61.80
2017-06-16T04:09:56.699Z,60.60
2017-06-16T04:12:24.202Z,61.10
2017-06-16T04:14:52.470Z,60.00
2017-06-16T04:17:20.720Z,60.00
2017-06-16T04:19:48.252Z,59.80
2017-06-16T04:22:15.756Z,59.70
2017-06-16T04:24:43.244Z,58.90
2017-06-16T04:27:10.728Z,58.90
2017-06-16T04:29:38.218Z,58.80
2017-06-16T04:32:05.704Z,58.10
2017-06-16T04:34:33.945Z,58.00
2017-06-16T04:37:01.441Z,57.90
2017-06-16T04:39:29.685Z,57.90
2017-06-16T04:41:57.165Z,57.90
2017-06-16T04:44:24.660Z,57.90
2017-06-16T04:46:52.132Z,57.70
2017-06-16T04:49:19.620Z,57.50
2017-06-16T04:51:47.106Z,57.50
2017-06-16T04:54:15.356Z,57.40
2017-06-16T04:56:42.865Z,57.30
2017-06-16T04:59:10.336Z,57.50
2017-06-16T05:01:37.840Z,57.90
2017-06-16T05:04:05.316Z,57.00
2017-06-16T05:06:33.584Z,56.60
2017-06-16T05:09:01.829Z,57.20
2017-06-16T05:11:29.320Z,56.60
2017-06-16T05:13:57.586Z,57.30
2017-06-16T05:16:25.074Z,57.20
2017-06-16T05:18:52.571Z,57.10
2017-06-16T05:21:20.054Z,56.80
2017-06-16T05:23:47.532Z,56.90
2017-06-16T05:26:15.801Z,56.90
2017-06-16T05:28:43.314Z,56.90
2017-06-16T05:31:10.789Z,56.70
2017-06-16T05:33:38.264Z,56.20
2017-06-16T05:36:05.760Z,56.10
2017-06-16T05:38:33.346Z,55.50
2017-06-16T05:41:00.834Z,55.40
2017-06-16T05:43:28.313Z,55.30
2017-06-16T05:45:56.575Z,55.70
2017-06-16T05:48:24.048Z,55.60
2017-06-16T05:50:52.284Z,53.10
2017-06-16T05:53:19.775Z,53.10
2017-06-16T05:55:47.248Z,52.60
2017-06-16T05:58:15.492Z,51.90
2017-06-16T06:00:42.984Z,51.80
2017-06-16T06:03:11.229Z,52.00
2017-06-16T06:05:38.712Z,52.00
2017-06-16T06:08:06.958Z,51.90
2017-06-16T06:10:34.440Z,51.90
2017-06-16T06:13:02.689Z,51.80
2017-06-16T06:15:30.176Z,51.10
2017-06-16T06:17:58.415Z,51.00
2017-06-16T06:20:25.920Z,50.40
2017-06-16T06:22:54.234Z,50.60
2017-06-16T06:25:21.709Z,50.50
2017-06-16T06:27:49.208Z,51.20
2017-06-16T06:30:17.450Z,50.80
2017-06-16T06:32:44.928Z,50.60
2017-06-16T06:35:12.425Z,50.90
2017-06-16T06:37:40.003Z,50.30
2017-06-16T06:40:07.481Z,49.50
2017-06-16T06:42:34.961Z,49.40
2017-06-16T06:45:02.448Z,49.20
2017-06-16T06:47:29.924Z,49.90
2017-06-16T06:49:57.461Z,50.20
2017-06-16T06:52:25.716Z,49.40
2017-06-16T06:54:53.227Z,49.40
2017-06-16T06:57:20.706Z,49.50
2017-06-16T06:59:48.197Z,49.00
2017-06-16T07:02:16.472Z,47.60
2017-06-16T07:04:43.949Z,47.70
2017-06-16T07:07:11.490Z,47.70
2017-06-16T07:09:38.952Z,47.30
2017-06-16T07:12:07.211Z,42.70
2017-06-16T07:14:34.698Z,42.70
2017-06-16T07:17:02.968Z,42.30
2017-06-16T07:19:31.205Z,42.10
2017-06-16T07:21:58.740Z,42.00
2017-06-16T07:24:26.237Z,41.30
2017-06-16T07:26:53.724Z,40.20
2017-06-16T07:29:21.958Z,36.50
2017-06-16T07:31:49.460Z,36.40
2017-06-16T07:34:17.711Z,36.70
2017-06-16T07:36:45.196Z,36.70
2017-06-16T07:39:13.463Z,34.80
2017-06-16T07:41:41.729Z,35.00
2017-06-16T07:44:09.212Z,34.40
2017-06-16T07:46:36.698Z,32.30
2017-06-16T07:49:04.184Z,32.70
2017-06-16T07:51:31.681Z,32.10
2017-06-16T07:53:59.936Z,33.20
2017-06-16T07:56:27.427Z,33.10
2017-06-16T07:58:54.917Z,31.00
2017-06-16T08:01:22.390Z,29.40
2017-06-16T08:03:49.865Z,31.10
2017-06-16T08:06:17.360Z,31.00
2017-06-16T08:08:44.839Z,32.10
2017-06-16T08:11:12.331Z,30.30
2017-06-16T08:13:39.804Z,32.50
2017-06-16T08:16:08.060Z,32.60
2017-06-16T08:18:35.541Z,32.30
2017-06-16T08:21:09.636Z,29.70
2017-06-16T08:23:37.129Z,29.60
2017-06-16T08:26:04.607Z,27.90
2017-06-16T08:28:32.073Z,26.00
2017-06-16T08:30:59.564Z,26.90
2017-06-16T08:33:27.039Z,26.50
2017-06-16T08:35:54.538Z,26.10
2017-06-16T08:38:22.017Z,26.80
2017-06-16T08:40:49.505Z,24.80
2017-06-16T08:43:16.993Z,23.60
2017-06-16T08:45:44.482Z,20.70
2017-06-16T08:48:11.964Z,21.70
2017-06-16T08:50:39.440Z,21.60
2017-06-16T08:53:06.946Z,21.60
2017-06-16T08:55:34.438Z,21.30
2017-06-16T08:58:01.941Z,22.40
2017-06-16T09:00:30.175Z,21.10
2017-06-16T09:02:57.669Z,21.00
2017-06-16T09:05:25.911Z,20.10
2017-06-16T09:07:53.439Z,20.00
2017-06-16T09:10:20.915Z,19.20
2017-06-16T09:12:48.397Z,19.80
2017-06-16T09:15:15.885Z,19.90
2017-06-16T09:17:44.139Z,18.60
2017-06-16T09:20:11.647Z,18.50
2017-06-16T09:22:39.120Z,19.40
2017-06-16T09:25:06.625Z,19.90
2017-06-16T09:27:34.856Z,20.00
2017-06-16T09:30:02.334Z,19.90
2017-06-16T09:32:29.825Z,20.70
2017-06-16T09:34:59.100Z,18.90
2017-06-16T09:37:26.610Z,18.90
2017-06-16T09:39:54.088Z,19.40
2017-06-16T09:42:21.557Z,19.80
2017-06-16T09:44:49.086Z,21.10
2017-06-16T09:47:16.566Z,19.70
2017-06-16T09:49:44.060Z,20.90
2017-06-16T09:52:11.532Z,19.00
2017-06-16T09:54:39.841Z,19.50
2017-06-16T09:57:08.218Z,19.50
2017-06-16T09:59:35.685Z,19.90
2017-06-16T10:02:03.194Z,19.20
2017-06-16T10:04:31.441Z,19.50
2017-06-16T10:06:58.918Z,19.50
2017-06-16T10:09:27.181Z,19.50
2017-06-16T10:11:54.661Z,19.00
2017-06-16T10:14:22.926Z,19.20
2017-06-16T10:16:50.406Z,18.80
2017-06-16T10:19:18.633Z,22.50
2017-06-16T10:21:46.125Z,22.60
2017-06-16T10:24:13.617Z,20.80
2017-06-16T10:26:41.097Z,20.80
2017-06-16T10:29:08.596Z,20.60
2017-06-16T10:31:36.080Z,21.00
2017-06-16T10:34:03.557Z,21.90
2017-06-16T10:36:31.052Z,21.00
2017-06-16T10:38:58.518Z,20.80
2017-06-16T10:41:26.005Z,20.20
2017-06-16T10:43:54.244Z,20.10
2017-06-16T10:46:21.717Z,20.10
2017-06-16T10:48:49.257Z,20.10
2017-06-16T10:51:16.728Z,20.00
2017-06-16T10:53:44.231Z,20.30
2017-06-16T10:56:11.710Z,20.50
2017-06-16T10:58:39.200Z,21.50
2017-06-16T11:01:06.695Z,22.20
2017-06-16T11:03:34.944Z,23.10
2017-06-16T11:06:02.420Z,23.00
2017-06-16T11:08:30.665Z,23.60
2017-06-16T11:10:58.154Z,23.60
2017-06-16T11:13:26.416Z,25.30
2017-06-16T11:15:53.889Z,25.40
2017-06-16T11:18:22.124Z,28.20
2017-06-16T11:20:49.628Z,28.10
2017-06-16T11:23:17.110Z,28.10
2017-06-16T11:25:44.607Z,27.90
2017-06-16T11:28:12.081Z,29.00
2017-06-16T11:30:40.352Z,29.60
2017-06-16T11:33:07.849Z,29.00
2017-06-16T11:35:35.329Z,28.60
2017-06-16T11:38:02.793Z,29.40
2017-06-16T11:40:30.294Z,29.50
2017-06-16T11:42:58.528Z,30.80
2017-06-16T11:45:26.022Z,30.30
2017-06-16T11:47:53.577Z,30.80
2017-06-16T11:50:21.052Z,30.80
2017-06-16T11:52:49.325Z,29.60
2017-06-16T11:55:17.561Z,30.00
2017-06-16T11:57:45.051Z,29.90
2017-06-16T12:00:12.666Z,30.10
2017-06-16T12:02:40.162Z,30.10
2017-06-16T12:05:07.663Z,30.00
2017-06-16T12:07:35.141Z,29.60
2017-06-16T12:10:02.640Z,31.60
2017-06-16T12:12:30.120Z,30.40
2017-06-16T12:14:58.361Z,33.10
2017-06-16T12:17:25.858Z,33.10
2017-06-16T12:19:54.124Z,32.60
2017-06-16T12:22:22.361Z,32.90
2017-06-16T12:24:49.864Z,32.90
2017-06-16T12:27:18.127Z,33.30
2017-06-16T12:29:45.604Z,33.50
2017-06-16T12:32:13.874Z,32.10
2017-06-16T12:34:42.111Z,31.60
2017-06-16T12:37:09.640Z,31.60
2017-06-16T12:39:37.128Z,30.80
2017-06-16T12:42:04.604Z,31.30
2017-06-16T12:44:32.088Z,32.30
2017-06-16T12:47:00.332Z,32.70
2017-06-16T12:49:27.805Z,32.80
2017-06-16T12:51:56.077Z,33.20
2017-06-16T12:54:23.545Z,33.20
2017-06-16T12:56:51.860Z,33.10
2017-06-16T12:59:19.336Z,33.20
2017-06-16T13:01:46.833Z,33.90
2017-06-16T13:04:15.059Z,33.50
2017-06-16T13:06:42.548Z,33.50
2017-06-16T13:09:10.059Z,32.80
2017-06-16T13:11:37.547Z,33.90
2017-06-16T13:14:05.049Z,35.30
2017-06-16T13:16:33.288Z,32.90
2017-06-16T13:19:00.777Z,32.90
2017-06-16T13:21:29.077Z,33.30
2017-06-16T13:23:56.572Z,33.30
2017-06-16T13:26:24.111Z,33.20
2017-06-16T13:28:51.576Z,34.00
2017-06-16T13:31:19.088Z,36.20
2017-06-16T13:33:47.324Z,35.60
2017-06-16T13:36:14.801Z,35.40
2017-06-16T13:38:42.292Z,35.50
2017-06-16T13:41:10.548Z,36.10
2017-06-16T13:43:38.058Z,36.00
2017-06-16T13:46:05.546Z,36.20
2017-06-16T13:48:33.042Z,36.10
2017-06-16T13:51:01.288Z,34.90
2017-06-16T13:53:28.761Z,34.80
2017-06-16T13:55:56.272Z,35.70
2017-06-16T13:58:23.825Z,33.40
2017-06-16T14:00:51.304Z,33.50
2017-06-16T14:03:18.792Z,34.00
2017-06-16T14:05:46.281Z,33.40
2017-06-16T14:08:13.784Z,33.90
2017-06-16T14:10:41.318Z,34.10
2017-06-16T14:13:08.827Z,34.80
2017-06-16T14:15:36.300Z,33.20
2017-06-16T14:18:04.552Z,33.60
2017-06-16T14:20:32.037Z,33.60
2017-06-16T14:23:00.346Z,34.90
2017-06-16T14:25:27.833Z,34.90
2017-06-16T14:27:55.361Z,35.30
2017-06-16T14:30:22.849Z,35.10
2017-06-16T14:32:50.332Z,34.90
2017-06-16T14:35:17.940Z,35.10
2017-06-16T14:37:45.407Z,35.70
2017-06-16T14:40:12.901Z,37.00
2017-06-16T14:42:40.376Z,36.10
2017-06-16T14:45:08.631Z,36.10
2017-06-16T14:47:36.146Z,35.70
2017-06-16T14:50:03.621Z,35.90
2017-06-16T14:52:31.112Z,36.10
2017-06-16T14:54:58.580Z,34.60
2017-06-16T14:57:26.851Z,34.80
2017-06-16T14:59:54.349Z,34.80
2017-06-16T15:02:21.841Z,36.30
2017-06-16T15:04:49.308Z,37.20
2017-06-16T15:07:16.804Z,35.90
2017-06-16T15:09:44.329Z,36.10
2017-06-16T15:12:11.805Z,36.50
2017-06-16T15:14:40.061Z,36.40
2017-06-16T15:17:07.532Z,36.40
2017-06-16T15:19:35.792Z,35.30
2017-06-16T15:22:03.299Z,35.30
2017-06-16T15:24:30.808Z,35.40
2017-06-16T15:26:58.294Z,35.20
2017-06-16T15:29:26.528Z,36.20
2017-06-16T15:31:54.023Z,35.80
2017-06-16T15:34:22.268Z,36.50
2017-06-16T15:36:49.793Z,35.90
2017-06-16T15:39:17.467Z,35.90
2017-06-16T15:41:44.934Z,35.60
2017-06-16T15:44:12.443Z,36.50
2017-06-16T15:46:40.708Z,36.80
2017-06-16T15:49:08.981Z,37.20
2017-06-16T15:51:36.456Z,37.10
2017-06-16T15:54:04.716Z,36.80
2017-06-16T15:56:32.188Z,36.70
2017-06-16T15:59:00.436Z,36.20
2017-06-16T16:01:27.938Z,36.10
2017-06-16T16:03:55.435Z,35.90
2017-06-16T16:06:22.930Z,34.30
2017-06-16T16:08:51.183Z,35.60
2017-06-16T16:11:18.657Z,35.50
2017-06-16T16:13:46.127Z,36.20
2017-06-16T16:16:14.446Z,36.70
2017-06-16T16:18:41.940Z,36.20
2017-06-16T16:21:09.451Z,37.10
2017-06-16T16:23:36.949Z,37.00
2017-06-16T16:26:04.453Z,37.20
2017-06-16T16:28:31.948Z,36.70
2017-06-16T16:30:59.458Z,37.30
2017-06-16T16:33:27.701Z,37.80
2017-06-16T16:35:55.205Z,37.70
2017-06-16T16:38:22.685Z,38.20
2017-06-16T16:40:50.177Z,38.30
2017-06-16T16:43:17.653Z,38.90
2017-06-16T16:45:45.905Z,39.10
2017-06-16T16:48:13.400Z,38.50
2017-06-16T16:50:41.653Z,38.60
2017-06-16T16:53:09.153Z,38.50
2017-06-16T16:55:36.620Z,39.40
2017-06-16T16:58:04.120Z,40.10
2017-06-16T17:00:31.625Z,40.30
2017-06-16T17:02:59.117Z,39.90
2017-06-16T17:05:26.588Z,40.00
2017-06-16T17:07:54.123Z,39.70
2017-06-16T17:10:21.623Z,39.50
2017-06-16T17:12:49.139Z,39.60
2017-06-16T17:15:16.632Z,40.20
2017-06-16T17:17:44.105Z,40.40
2017-06-16T17:20:11.596Z,40.70
2017-06-16T17:22:39.072Z,40.50
2017-06-16T17:25:06.557Z,40.70
2017-06-16T17:27:34.040Z,40.90
2017-06-16T17:30:02.313Z,41.00
2017-06-16T17:32:29.804Z,41.40
2017-06-16T17:34:57.274Z,41.70
2017-06-16T17:37:24.768Z,41.60
2017-06-16T17:39:52.245Z,41.70
2017-06-16T17:42:19.736Z,42.40
2017-06-16T17:44:47.218Z,42.20
2017-06-16T17:47:14.725Z,41.50
2017-06-16T17:49:42.962Z,42.50
2017-06-16T17:52:10.449Z,42.50
2017-06-16T17:54:37.976Z,42.20
2017-06-16T17:57:05.453Z,42.20
2017-06-16T17:59:32.953Z,42.50
2017-06-16T18:02:00.445Z,42.70
2017-06-16T18:04:27.940Z,42.70
2017-06-16T18:06:55.474Z,42.90
2017-06-16T18:09:22.973Z,43.20
2017-06-16T18:11:51.245Z,44.10
2017-06-16T18:14:19.500Z,43.70
2017-06-16T18:16:46.979Z,43.70
2017-06-16T18:19:15.234Z,44.00
2017-06-16T18:21:42.780Z,43.90
2017-06-16T18:24:10.278Z,43.60
2017-06-16T18:26:38.517Z,44.10
2017-06-16T18:29:06.020Z,44.10
2017-06-16T18:31:33.509Z,44.20
2017-06-16T18:34:01.025Z,44.70
2017-06-16T18:36:29.346Z,45.00
2017-06-16T18:38:56.863Z,45.10
2017-06-16T18:41:25.126Z,45.50
2017-06-16T18:43:52.614Z,45.40
2017-06-16T18:46:20.108Z,45.90
2017-06-16T18:48:47.595Z,45.70
2017-06-16T18:51:15.110Z,46.00
2017-06-16T18:53:42.622Z,46.30
2017-06-16T18:56:10.105Z,47.70
2017-06-16T18:58:37.601Z,47.20
2017-06-16T19:01:05.084Z,46.80
2017-06-16T19:03:32.562Z,47.00
2017-06-16T19:06:00.834Z,48.20
2017-06-16T19:08:28.305Z,47.50
2017-06-16T19:10:56.588Z,48.50
2017-06-16T19:13:24.895Z,48.30
2017-06-16T19:15:52.401Z,48.20
2017-06-16T19:18:19.878Z,48.20
2017-06-16T19:20:48.142Z,48.60
2017-06-16T19:23:15.629Z,48.60
2017-06-16T19:25:43.113Z,49.00
2017-06-16T19:28:10.609Z,49.20
2017-06-16T19:30:38.098Z,49.30
2017-06-16T19:33:05.618Z,50.10
2017-06-16T19:35:33.154Z,49.80
2017-06-16T19:38:00.633Z,49.90
2017-06-16T19:40:28.121Z,50.40
2017-06-16T19:42:56.375Z,50.80
2017-06-16T19:45:23.876Z,51.40
2017-06-16T19:47:51.386Z,51.00
2017-06-16T19:50:18.868Z,50.50
2017-06-16T19:52:47.140Z,51.60
2017-06-16T19:55:15.388Z,51.30
2017-06-16T19:57:42.865Z,51.30
2017-06-16T20:00:10.374Z,51.80
2017-06-16T20:02:37.873Z,52.10
2017-06-16T20:05:05.352Z,51.70
2017-06-16T20:07:33.623Z,52.20
2017-06-16T20:10:01.874Z,52.50
2017-06-16T20:12:29.504Z,52.60
2017-06-16T20:14:56.988Z,52.30
2017-06-16T20:17:24.465Z,52.40
2017-06-16T20:19:51.959Z,52.50
2017-06-16T20:22:19.445Z,52.90
2017-06-16T20:24:46.944Z,53.00
2017-06-16T20:27:15.200Z,53.10
2017-06-16T20:29:42.709Z,53.10
2017-06-16T20:32:10.221Z,53.00
2017-06-16T20:34:37.721Z,53.10
2017-06-16T20:37:05.206Z,53.40
2017-06-16T20:39:32.701Z,54.00
2017-06-16T20:42:00.197Z,53.80
2017-06-16T20:44:27.709Z,53.80
2017-06-16T20:46:55.204Z,54.10
2017-06-16T20:49:23.449Z,53.30
2017-06-16T20:51:50.940Z,53.30
2017-06-16T20:54:18.497Z,53.80
2017-06-16T20:56:46.753Z,54.30
2017-06-16T20:59:14.237Z,54.20
2017-06-16T21:01:41.733Z,54.30
2017-06-16T21:04:09.212Z,54.30
2017-06-16T21:06:36.704Z,54.40
2017-06-16T21:09:05.000Z,54.70
2017-06-16T21:11:32.492Z,54.60
2017-06-16T21:14:00.044Z,55.80
2017-06-16T21:16:27.547Z,55.80
2017-06-16T21:18:55.793Z,55.80
2017-06-16T21:21:23.297Z,55.70
2017-06-16T21:23:51.557Z,55.90
2017-06-16T21:26:19.885Z,56.20
2017-06-16T21:28:47.371Z,56.10
2017-06-16T21:31:14.860Z,56.30
2017-06-16T21:33:43.178Z,56.70
2017-06-16T21:36:10.709Z,56.60
2017-06-16T21:38:38.184Z,56.80
2017-06-16T21:41:05.703Z,56.90
2017-06-16T21:43:33.961Z,56.70
2017-06-16T21:46:01.465Z,56.40
2017-06-16T21:48:28.970Z,56.30
2017-06-16T21:50:56.468Z,56.60
2017-06-16T21:53:24.729Z,57.20
2017-06-16T21:55:53.020Z,57.00
2017-06-16T21:58:21.269Z,57.10
2017-06-16T22:00:48.784Z,57.00
2017-06-16T22:03:16.264Z,57.60
2017-06-16T22:05:43.783Z,58.10
2017-06-16T22:08:11.263Z,58.20
2017-06-16T22:10:38.748Z,58.30
2017-06-16T22:13:06.248Z,58.30
2017-06-16T22:15:34.516Z,59.30
2017-06-16T22:18:02.783Z,57.90
2017-06-16T22:20:30.264Z,57.90
2017-06-16T22:22:57.858Z,57.50
2017-06-16T22:25:25.361Z,57.50
2017-06-16T22:27:53.665Z,57.70
2017-06-16T22:30:21.144Z,57.30
2017-06-16T22:32:48.630Z,57.30
2017-06-16T22:35:16.109Z,57.50
2017-06-16T22:37:43.580Z,57.80
2017-06-16T22:40:11.857Z,58.10
2017-06-16T22:42:40.126Z,58.50
2017-06-16T22:45:08.400Z,58.80
2017-06-16T22:47:35.910Z,58.70
2017-06-16T22:50:03.406Z,58.30
2017-06-16T22:52:30.877Z,58.40
2017-06-16T22:54:58.371Z,58.80
2017-06-16T22:57:25.851Z,58.40
2017-06-16T22:59:53.331Z,58.80
2017-06-16T23:02:20.829Z,59.80
2017-06-16T23:04:49.072Z,59.60
2017-06-16T23:07:16.577Z,59.60
2017-06-16T23:09:44.057Z,59.40
2017-06-16T23:12:11.613Z,60.40
2017-06-16T23:14:39.115Z,59.20
2017-06-16T23:17:06.593Z,59.90
2017-06-16T23:19:34.911Z,59.60
2017-06-16T23:22:02.391Z,59.50
2017-06-16T23:24:29.924Z,60.80
2017-06-16T23:26:57.416Z,59.60
2017-06-16T23:29:24.891Z,60.00
2017-06-16T23:31:52.382Z,60.40
2017-06-16T23:34:19.958Z,60.10
2017-06-16T23:36:47.461Z,61.00
2017-06-16T23:39:14.974Z,60.70
2017-06-16T23:41:42.467Z,62.00
2017-06-16T23:44:09.957Z,61.10
2017-06-16T23:46:38.216Z,60.70
2017-06-16T23:49:05.713Z,60.60
2017-06-16T23:51:33.189Z,59.90
2017-06-16T23:54:00.688Z,60.20
2017-06-16T23:56:28.173Z,60.60
2017-06-16T23:58:56.439Z,60.50
